sensor_id;sensor_type;location;lat;lon;timestamp;temperature;humidity
22526;DHT22;11429;50.842;4.386;2023-08-17T00:00:13;22.10;99.90
22526;DHT22;11429;50.842;4.386;2023-08-17T00:02:42;22.30;99.90
22526;DHT22;11429;50.842;4.386;2023-08-17T00:05:08;21.90;99.90
22526;DHT22;11429;50.842;4.386;2023-08-17T00:07:34;21.80;99.90
22526;DHT22;11429;50.842;4.386;2023-08-17T00:10:00;21.80;99.90
22526;DHT22;11429;50.842;4.386;2023-08-17T00:12:26;21.80;99.90
22526;DHT22;11429;50.842;4.386;2023-08-17T00:14:52;21.90;99.90
22526;DHT22;11429;50.842;4.386;2023-08-17T00:17:19;21.70;99.90
22526;DHT22;11429;50.842;4.386;2023-08-17T00:19:45;21.70;99.90
22526;DHT22;11429;50.842;4.386;2023-08-17T00:22:10;21.50;99.90
22526;DHT22;11429;50.842;4.386;2023-08-17T00:24:36;21.70;99.90
22526;DHT22;11429;50.842;4.386;2023-08-17T00:27:02;21.70;99.90
22526;DHT22;11429;50.842;4.386;2023-08-17T00:29:29;21.40;99.90
22526;DHT22;11429;50.842;4.386;2023-08-17T00:31:55;21.30;99.90
22526;DHT22;11429;50.842;4.386;2023-08-17T00:34:21;21.30;99.90
22526;DHT22;11429;50.842;4.386;2023-08-17T00:36:46;21.10;99.90
22526;DHT22;11429;50.842;4.386;2023-08-17T00:39:12;21.30;99.90
22526;DHT22;11429;50.842;4.386;2023-08-17T00:41:38;21.10;99.90
22526;DHT22;11429;50.842;4.386;2023-08-17T00:44:04;21.00;99.90
22526;DHT22;11429;50.842;4.386;2023-08-17T00:46:30;21.00;99.90
22526;DHT22;11429;50.842;4.386;2023-08-17T00:48:56;21.00;99.90
22526;DHT22;11429;50.842;4.386;2023-08-17T00:51:23;21.40;99.90
22526;DHT22;11429;50.842;4.386;2023-08-17T00:53:58;21.70;99.90
22526;DHT22;11429;50.842;4.386;2023-08-17T00:56:24;21.60;99.90
22526;DHT22;11429;50.842;4.386;2023-08-17T00:58:50;21.30;99.90
22526;DHT22;11429;50.842;4.386;2023-08-17T01:01:16;21.30;99.90
22526;DHT22;11429;50.842;4.386;2023-08-17T01:03:42;21.40;99.90
22526;DHT22;11429;50.842;4.386;2023-08-17T01:06:09;21.80;99.90
22526;DHT22;11429;50.842;4.386;2023-08-17T01:08:35;22.00;99.90
22526;DHT22;11429;50.842;4.386;2023-08-17T01:11:20;22.00;99.90
22526;DHT22;11429;50.842;4.386;2023-08-17T01:14:13;21.60;99.90
22526;DHT22;11429;50.842;4.386;2023-08-17T01:16:52;21.50;99.90
22526;DHT22;11429;50.842;4.386;2023-08-17T01:19:26;21.40;99.90
22526;DHT22;11429;50.842;4.386;2023-08-17T01:21:56;21.70;99.90
22526;DHT22;11429;50.842;4.386;2023-08-17T01:24:23;21.40;99.90
22526;DHT22;11429;50.842;4.386;2023-08-17T01:26:49;21.40;99.90
22526;DHT22;11429;50.842;4.386;2023-08-17T01:29:15;21.40;99.90
22526;DHT22;11429;50.842;4.386;2023-08-17T01:34:19;21.40;99.90
22526;DHT22;11429;50.842;4.386;2023-08-17T01:36:53;21.20;99.90
22526;DHT22;11429;50.842;4.386;2023-08-17T01:39:26;21.20;99.90
22526;DHT22;11429;50.842;4.386;2023-08-17T01:41:52;21.20;99.90
22526;DHT22;11429;50.842;4.386;2023-08-17T01:44:21;21.30;99.90
22526;DHT22;11429;50.842;4.386;2023-08-17T01:46:47;21.20;99.90
22526;DHT22;11429;50.842;4.386;2023-08-17T01:49:12;21.30;99.90
22526;DHT22;11429;50.842;4.386;2023-08-17T01:51:38;21.10;99.90
22526;DHT22;11429;50.842;4.386;2023-08-17T01:54:04;21.40;99.90
22526;DHT22;11429;50.842;4.386;2023-08-17T01:56:29;21.30;99.90
22526;DHT22;11429;50.842;4.386;2023-08-17T01:58:55;21.30;99.90
22526;DHT22;11429;50.842;4.386;2023-08-17T02:01:21;21.20;99.90
22526;DHT22;11429;50.842;4.386;2023-08-17T02:03:47;21.20;99.90
22526;DHT22;11429;50.842;4.386;2023-08-17T02:06:12;21.10;99.90
22526;DHT22;11429;50.842;4.386;2023-08-17T02:08:38;21.10;99.90
22526;DHT22;11429;50.842;4.386;2023-08-17T02:11:04;21.00;99.90
22526;DHT22;11429;50.842;4.386;2023-08-17T02:13:30;20.90;99.90
22526;DHT22;11429;50.842;4.386;2023-08-17T02:15:56;20.80;99.90
22526;DHT22;11429;50.842;4.386;2023-08-17T02:18:21;21.10;99.90
22526;DHT22;11429;50.842;4.386;2023-08-17T02:20:47;21.10;99.90
22526;DHT22;11429;50.842;4.386;2023-08-17T02:23:13;21.00;99.90
22526;DHT22;11429;50.842;4.386;2023-08-17T02:25:39;21.20;99.90
22526;DHT22;11429;50.842;4.386;2023-08-17T02:28:05;21.40;99.90
22526;DHT22;11429;50.842;4.386;2023-08-17T02:30:31;21.30;99.90
22526;DHT22;11429;50.842;4.386;2023-08-17T02:32:57;21.00;99.90
22526;DHT22;11429;50.842;4.386;2023-08-17T02:35:23;21.00;99.90
22526;DHT22;11429;50.842;4.386;2023-08-17T02:37:49;20.90;99.90
22526;DHT22;11429;50.842;4.386;2023-08-17T02:40:14;20.80;99.90
22526;DHT22;11429;50.842;4.386;2023-08-17T02:42:40;20.90;99.90
22526;DHT22;11429;50.842;4.386;2023-08-17T02:45:07;20.90;99.90
22526;DHT22;11429;50.842;4.386;2023-08-17T02:47:32;21.00;99.90
22526;DHT22;11429;50.842;4.386;2023-08-17T02:49:58;20.90;99.90
22526;DHT22;11429;50.842;4.386;2023-08-17T02:52:24;20.70;99.90
22526;DHT22;11429;50.842;4.386;2023-08-17T02:54:50;21.10;99.90
22526;DHT22;11429;50.842;4.386;2023-08-17T02:57:15;20.90;99.90
22526;DHT22;11429;50.842;4.386;2023-08-17T02:59:41;20.70;99.90
22526;DHT22;11429;50.842;4.386;2023-08-17T03:02:07;21.00;99.90
22526;DHT22;11429;50.842;4.386;2023-08-17T03:04:32;20.90;99.90
22526;DHT22;11429;50.842;4.386;2023-08-17T03:06:58;20.90;99.90
22526;DHT22;11429;50.842;4.386;2023-08-17T03:09:24;20.90;99.90
22526;DHT22;11429;50.842;4.386;2023-08-17T03:11:50;21.00;99.90
22526;DHT22;11429;50.842;4.386;2023-08-17T03:14:16;20.50;99.90
22526;DHT22;11429;50.842;4.386;2023-08-17T03:16:41;20.60;99.90
22526;DHT22;11429;50.842;4.386;2023-08-17T03:19:07;20.60;99.90
22526;DHT22;11429;50.842;4.386;2023-08-17T03:21:36;20.70;99.90
22526;DHT22;11429;50.842;4.386;2023-08-17T03:24:02;20.60;99.90
22526;DHT22;11429;50.842;4.386;2023-08-17T03:26:28;20.50;99.90
22526;DHT22;11429;50.842;4.386;2023-08-17T03:28:53;20.50;99.90
22526;DHT22;11429;50.842;4.386;2023-08-17T03:31:22;20.20;99.90
22526;DHT22;11429;50.842;4.386;2023-08-17T03:33:49;20.20;99.90
22526;DHT22;11429;50.842;4.386;2023-08-17T03:36:14;20.30;99.90
22526;DHT22;11429;50.842;4.386;2023-08-17T03:38:40;20.40;99.90
22526;DHT22;11429;50.842;4.386;2023-08-17T03:41:06;20.40;99.90
22526;DHT22;11429;50.842;4.386;2023-08-17T03:43:32;20.00;99.90
22526;DHT22;11429;50.842;4.386;2023-08-17T03:45:58;20.00;99.90
22526;DHT22;11429;50.842;4.386;2023-08-17T03:48:24;20.10;99.90
22526;DHT22;11429;50.842;4.386;2023-08-17T03:50:54;20.20;99.90
22526;DHT22;11429;50.842;4.386;2023-08-17T03:53:21;20.40;99.90
22526;DHT22;11429;50.842;4.386;2023-08-17T03:55:50;20.30;99.90
22526;DHT22;11429;50.842;4.386;2023-08-17T03:58:17;20.20;99.90
22526;DHT22;11429;50.842;4.386;2023-08-17T04:00:49;20.20;99.90
22526;DHT22;11429;50.842;4.386;2023-08-17T04:03:16;20.10;99.90
22526;DHT22;11429;50.842;4.386;2023-08-17T04:05:42;20.00;99.90
22526;DHT22;11429;50.842;4.386;2023-08-17T04:08:08;19.80;99.90
22526;DHT22;11429;50.842;4.386;2023-08-17T04:10:34;19.70;99.90
22526;DHT22;11429;50.842;4.386;2023-08-17T04:12:59;19.70;99.90
22526;DHT22;11429;50.842;4.386;2023-08-17T04:15:25;19.70;99.90
22526;DHT22;11429;50.842;4.386;2023-08-17T04:17:51;19.70;99.90
22526;DHT22;11429;50.842;4.386;2023-08-17T04:20:17;19.80;99.90
22526;DHT22;11429;50.842;4.386;2023-08-17T04:22:44;19.80;99.90
22526;DHT22;11429;50.842;4.386;2023-08-17T04:25:10;19.70;99.90
22526;DHT22;11429;50.842;4.386;2023-08-17T04:27:36;19.70;99.90
22526;DHT22;11429;50.842;4.386;2023-08-17T04:30:02;19.80;99.90
22526;DHT22;11429;50.842;4.386;2023-08-17T04:32:28;19.80;99.90
22526;DHT22;11429;50.842;4.386;2023-08-17T04:34:53;19.80;99.90
22526;DHT22;11429;50.842;4.386;2023-08-17T04:37:19;19.40;99.90
22526;DHT22;11429;50.842;4.386;2023-08-17T04:39:45;19.50;99.90
22526;DHT22;11429;50.842;4.386;2023-08-17T04:42:13;19.40;99.90
22526;DHT22;11429;50.842;4.386;2023-08-17T04:44:39;19.40;99.90
22526;DHT22;11429;50.842;4.386;2023-08-17T04:47:05;19.40;99.90
22526;DHT22;11429;50.842;4.386;2023-08-17T04:49:31;19.40;99.90
22526;DHT22;11429;50.842;4.386;2023-08-17T04:51:57;19.80;99.90
22526;DHT22;11429;50.842;4.386;2023-08-17T04:54:22;19.60;99.90
22526;DHT22;11429;50.842;4.386;2023-08-17T04:56:48;19.60;99.90
22526;DHT22;11429;50.842;4.386;2023-08-17T04:59:14;19.60;99.90
22526;DHT22;11429;50.842;4.386;2023-08-17T05:01:39;19.70;99.90
22526;DHT22;11429;50.842;4.386;2023-08-17T05:04:05;20.00;99.90
22526;DHT22;11429;50.842;4.386;2023-08-17T05:06:31;19.90;99.90
22526;DHT22;11429;50.842;4.386;2023-08-17T05:08:57;19.70;99.90
22526;DHT22;11429;50.842;4.386;2023-08-17T05:11:23;19.80;99.90
22526;DHT22;11429;50.842;4.386;2023-08-17T05:13:49;20.00;99.90
22526;DHT22;11429;50.842;4.386;2023-08-17T05:16:15;19.80;99.90
22526;DHT22;11429;50.842;4.386;2023-08-17T05:18:40;19.80;99.90
22526;DHT22;11429;50.842;4.386;2023-08-17T05:21:06;19.70;99.90
22526;DHT22;11429;50.842;4.386;2023-08-17T05:23:32;19.70;99.90
22526;DHT22;11429;50.842;4.386;2023-08-17T05:25:58;19.90;99.90
22526;DHT22;11429;50.842;4.386;2023-08-17T05:28:24;19.80;99.90
22526;DHT22;11429;50.842;4.386;2023-08-17T05:30:49;19.90;99.90
22526;DHT22;11429;50.842;4.386;2023-08-17T05:33:15;19.90;99.90
22526;DHT22;11429;50.842;4.386;2023-08-17T05:35:41;20.00;99.90
22526;DHT22;11429;50.842;4.386;2023-08-17T05:38:08;20.20;99.90
22526;DHT22;11429;50.842;4.386;2023-08-17T05:40:35;20.20;99.90
22526;DHT22;11429;50.842;4.386;2023-08-17T05:43:01;20.20;99.90
22526;DHT22;11429;50.842;4.386;2023-08-17T05:45:26;20.00;99.90
22526;DHT22;11429;50.842;4.386;2023-08-17T05:47:52;19.60;99.90
22526;DHT22;11429;50.842;4.386;2023-08-17T05:50:18;19.80;99.90
22526;DHT22;11429;50.842;4.386;2023-08-17T05:52:44;20.00;99.90
22526;DHT22;11429;50.842;4.386;2023-08-17T05:55:09;20.00;99.90
22526;DHT22;11429;50.842;4.386;2023-08-17T05:57:35;20.10;99.90
22526;DHT22;11429;50.842;4.386;2023-08-17T06:00:01;20.10;99.90
22526;DHT22;11429;50.842;4.386;2023-08-17T06:02:27;20.10;99.90
22526;DHT22;11429;50.842;4.386;2023-08-17T06:04:52;20.00;99.90
22526;DHT22;11429;50.842;4.386;2023-08-17T06:07:18;20.10;99.90
22526;DHT22;11429;50.842;4.386;2023-08-17T06:09:44;20.30;99.90
22526;DHT22;11429;50.842;4.386;2023-08-17T06:12:10;20.30;99.90
22526;DHT22;11429;50.842;4.386;2023-08-17T06:14:35;20.30;99.90
22526;DHT22;11429;50.842;4.386;2023-08-17T06:17:01;20.20;99.90
22526;DHT22;11429;50.842;4.386;2023-08-17T06:19:27;20.30;99.90
22526;DHT22;11429;50.842;4.386;2023-08-17T06:21:52;20.40;99.90
22526;DHT22;11429;50.842;4.386;2023-08-17T06:24:18;20.30;99.90
22526;DHT22;11429;50.842;4.386;2023-08-17T06:26:44;20.50;99.90
22526;DHT22;11429;50.842;4.386;2023-08-17T06:29:11;20.50;99.90
22526;DHT22;11429;50.842;4.386;2023-08-17T06:31:37;20.20;99.90
22526;DHT22;11429;50.842;4.386;2023-08-17T06:34:03;20.40;99.90
22526;DHT22;11429;50.842;4.386;2023-08-17T06:36:32;20.20;99.90
22526;DHT22;11429;50.842;4.386;2023-08-17T06:38:58;20.40;99.90
22526;DHT22;11429;50.842;4.386;2023-08-17T06:41:25;20.50;99.90
22526;DHT22;11429;50.842;4.386;2023-08-17T06:43:51;20.30;99.90
22526;DHT22;11429;50.842;4.386;2023-08-17T06:46:17;20.40;99.90
22526;DHT22;11429;50.842;4.386;2023-08-17T06:48:43;20.70;99.90
22526;DHT22;11429;50.842;4.386;2023-08-17T06:51:09;20.70;99.90
22526;DHT22;11429;50.842;4.386;2023-08-17T06:53:35;20.70;99.90
22526;DHT22;11429;50.842;4.386;2023-08-17T06:56:00;20.70;99.90
22526;DHT22;11429;50.842;4.386;2023-08-17T06:58:29;20.60;99.90
22526;DHT22;11429;50.842;4.386;2023-08-17T07:00:55;20.50;99.90
22526;DHT22;11429;50.842;4.386;2023-08-17T07:03:21;20.40;99.90
22526;DHT22;11429;50.842;4.386;2023-08-17T07:05:47;20.20;99.90
22526;DHT22;11429;50.842;4.386;2023-08-17T07:08:13;20.20;99.90
22526;DHT22;11429;50.842;4.386;2023-08-17T07:10:39;20.30;99.90
22526;DHT22;11429;50.842;4.386;2023-08-17T07:13:04;20.30;99.90
22526;DHT22;11429;50.842;4.386;2023-08-17T07:15:31;20.40;99.90
22526;DHT22;11429;50.842;4.386;2023-08-17T07:17:56;20.20;99.90
22526;DHT22;11429;50.842;4.386;2023-08-17T07:20:22;20.20;99.90
22526;DHT22;11429;50.842;4.386;2023-08-17T07:22:48;20.10;99.90
22526;DHT22;11429;50.842;4.386;2023-08-17T07:25:14;20.20;99.90
22526;DHT22;11429;50.842;4.386;2023-08-17T07:27:40;20.30;99.90
22526;DHT22;11429;50.842;4.386;2023-08-17T07:30:06;20.20;99.90
22526;DHT22;11429;50.842;4.386;2023-08-17T07:32:33;20.10;99.90
22526;DHT22;11429;50.842;4.386;2023-08-17T07:34:58;20.20;99.90
22526;DHT22;11429;50.842;4.386;2023-08-17T07:37:24;20.40;99.90
22526;DHT22;11429;50.842;4.386;2023-08-17T07:39:56;20.40;99.90
22526;DHT22;11429;50.842;4.386;2023-08-17T07:42:22;20.40;99.90
22526;DHT22;11429;50.842;4.386;2023-08-17T07:44:47;20.50;99.90
22526;DHT22;11429;50.842;4.386;2023-08-17T07:47:13;20.70;99.90
22526;DHT22;11429;50.842;4.386;2023-08-17T07:49:39;20.80;99.90
22526;DHT22;11429;50.842;4.386;2023-08-17T07:52:05;20.70;99.90
22526;DHT22;11429;50.842;4.386;2023-08-17T07:54:31;20.90;99.90
22526;DHT22;11429;50.842;4.386;2023-08-17T07:56:57;20.80;99.90
22526;DHT22;11429;50.842;4.386;2023-08-17T07:59:23;20.80;99.90
22526;DHT22;11429;50.842;4.386;2023-08-17T08:01:48;20.90;99.90
22526;DHT22;11429;50.842;4.386;2023-08-17T08:04:14;20.70;99.90
22526;DHT22;11429;50.842;4.386;2023-08-17T08:06:40;21.00;99.90
22526;DHT22;11429;50.842;4.386;2023-08-17T08:09:05;21.20;99.90
22526;DHT22;11429;50.842;4.386;2023-08-17T08:11:32;21.30;99.90
22526;DHT22;11429;50.842;4.386;2023-08-17T08:13:58;21.10;99.90
22526;DHT22;11429;50.842;4.386;2023-08-17T08:16:23;21.00;99.90
22526;DHT22;11429;50.842;4.386;2023-08-17T08:18:49;20.70;99.90
22526;DHT22;11429;50.842;4.386;2023-08-17T08:21:15;20.70;99.90
22526;DHT22;11429;50.842;4.386;2023-08-17T08:23:40;20.80;99.90
22526;DHT22;11429;50.842;4.386;2023-08-17T08:26:06;20.90;99.90
22526;DHT22;11429;50.842;4.386;2023-08-17T08:28:32;21.00;99.90
22526;DHT22;11429;50.842;4.386;2023-08-17T08:31:02;21.20;99.90
22526;DHT22;11429;50.842;4.386;2023-08-17T08:33:28;21.40;99.90
22526;DHT22;11429;50.842;4.386;2023-08-17T08:35:54;21.60;99.90
22526;DHT22;11429;50.842;4.386;2023-08-17T08:38:20;21.50;99.90
22526;DHT22;11429;50.842;4.386;2023-08-17T08:40:47;21.60;99.90
22526;DHT22;11429;50.842;4.386;2023-08-17T08:43:16;21.50;99.90
22526;DHT22;11429;50.842;4.386;2023-08-17T08:45:42;21.10;99.90
22526;DHT22;11429;50.842;4.386;2023-08-17T08:48:11;21.10;99.90
22526;DHT22;11429;50.842;4.386;2023-08-17T08:50:40;21.00;99.90
22526;DHT22;11429;50.842;4.386;2023-08-17T08:53:12;20.80;99.90
22526;DHT22;11429;50.842;4.386;2023-08-17T08:55:45;20.90;99.90
22526;DHT22;11429;50.842;4.386;2023-08-17T08:58:15;20.90;99.90
22526;DHT22;11429;50.842;4.386;2023-08-17T09:00:41;21.10;99.90
22526;DHT22;11429;50.842;4.386;2023-08-17T09:03:08;21.20;99.90
22526;DHT22;11429;50.842;4.386;2023-08-17T09:05:35;21.20;99.90
22526;DHT22;11429;50.842;4.386;2023-08-17T09:08:02;21.20;99.90
22526;DHT22;11429;50.842;4.386;2023-08-17T09:10:29;21.40;99.90
22526;DHT22;11429;50.842;4.386;2023-08-17T09:12:54;21.60;99.90
22526;DHT22;11429;50.842;4.386;2023-08-17T09:15:20;22.40;99.90
22526;DHT22;11429;50.842;4.386;2023-08-17T09:17:46;22.90;99.90
22526;DHT22;11429;50.842;4.386;2023-08-17T09:20:37;22.90;99.90
22526;DHT22;11429;50.842;4.386;2023-08-17T09:23:20;23.60;99.90
22526;DHT22;11429;50.842;4.386;2023-08-17T09:25:46;23.70;99.90
22526;DHT22;11429;50.842;4.386;2023-08-17T09:28:14;23.80;99.90
22526;DHT22;11429;50.842;4.386;2023-08-17T09:33:21;24.30;99.90
22526;DHT22;11429;50.842;4.386;2023-08-17T09:35:48;24.20;99.90
22526;DHT22;11429;50.842;4.386;2023-08-17T09:38:14;24.00;99.90
22526;DHT22;11429;50.842;4.386;2023-08-17T09:40:40;23.70;99.90
22526;DHT22;11429;50.842;4.386;2023-08-17T09:43:06;23.50;99.90
22526;DHT22;11429;50.842;4.386;2023-08-17T09:45:32;23.50;99.90
22526;DHT22;11429;50.842;4.386;2023-08-17T09:48:01;23.50;99.90
22526;DHT22;11429;50.842;4.386;2023-08-17T09:50:26;23.40;99.90
22526;DHT22;11429;50.842;4.386;2023-08-17T09:52:55;23.50;99.90
22526;DHT22;11429;50.842;4.386;2023-08-17T09:55:24;23.60;99.90
22526;DHT22;11429;50.842;4.386;2023-08-17T09:57:50;23.70;99.90
22526;DHT22;11429;50.842;4.386;2023-08-17T10:00:19;23.80;99.90
22526;DHT22;11429;50.842;4.386;2023-08-17T10:02:49;24.00;99.90
22526;DHT22;11429;50.842;4.386;2023-08-17T10:05:18;24.10;99.90
22526;DHT22;11429;50.842;4.386;2023-08-17T10:07:49;24.40;99.90
22526;DHT22;11429;50.842;4.386;2023-08-17T10:10:22;24.30;99.90
22526;DHT22;11429;50.842;4.386;2023-08-17T10:13:20;24.40;99.90
22526;DHT22;11429;50.842;4.386;2023-08-17T10:21:39;24.80;99.90
22526;DHT22;11429;50.842;4.386;2023-08-17T10:24:06;24.50;99.90
22526;DHT22;11429;50.842;4.386;2023-08-17T10:26:33;24.00;99.90
22526;DHT22;11429;50.842;4.386;2023-08-17T10:28:59;24.20;99.90
22526;DHT22;11429;50.842;4.386;2023-08-17T10:31:28;24.20;99.90
22526;DHT22;11429;50.842;4.386;2023-08-17T10:33:54;24.10;99.90
22526;DHT22;11429;50.842;4.386;2023-08-17T10:36:20;24.50;99.90
22526;DHT22;11429;50.842;4.386;2023-08-17T10:38:47;25.40;99.90
22526;DHT22;11429;50.842;4.386;2023-08-17T10:41:14;25.60;99.90
22526;DHT22;11429;50.842;4.386;2023-08-17T10:43:59;25.10;99.90
22526;DHT22;11429;50.842;4.386;2023-08-17T10:46:36;24.50;99.90
22526;DHT22;11429;50.842;4.386;2023-08-17T10:49:06;24.80;99.90
22526;DHT22;11429;50.842;4.386;2023-08-17T10:51:35;25.00;99.90
22526;DHT22;11429;50.842;4.386;2023-08-17T10:54:03;25.20;99.90
22526;DHT22;11429;50.842;4.386;2023-08-17T10:56:29;24.70;99.90
22526;DHT22;11429;50.842;4.386;2023-08-17T10:59:00;24.70;99.90
22526;DHT22;11429;50.842;4.386;2023-08-17T11:01:40;24.50;99.90
22526;DHT22;11429;50.842;4.386;2023-08-17T11:04:16;24.30;99.90
22526;DHT22;11429;50.842;4.386;2023-08-17T11:06:45;24.20;99.90
22526;DHT22;11429;50.842;4.386;2023-08-17T11:09:11;24.00;99.90
22526;DHT22;11429;50.842;4.386;2023-08-17T11:11:37;24.10;99.90
22526;DHT22;11429;50.842;4.386;2023-08-17T11:14:03;24.10;99.90
22526;DHT22;11429;50.842;4.386;2023-08-17T11:16:29;24.20;99.90
22526;DHT22;11429;50.842;4.386;2023-08-17T11:18:55;24.30;99.90
22526;DHT22;11429;50.842;4.386;2023-08-17T11:21:24;24.30;99.90
22526;DHT22;11429;50.842;4.386;2023-08-17T11:23:49;24.30;99.90
22526;DHT22;11429;50.842;4.386;2023-08-17T11:26:16;24.30;99.90
22526;DHT22;11429;50.842;4.386;2023-08-17T11:28:42;24.20;99.90
22526;DHT22;11429;50.842;4.386;2023-08-17T11:31:11;24.10;99.90
22526;DHT22;11429;50.842;4.386;2023-08-17T11:33:38;23.50;99.90
22526;DHT22;11429;50.842;4.386;2023-08-17T11:36:05;23.70;99.90
22526;DHT22;11429;50.842;4.386;2023-08-17T11:38:36;23.60;99.90
22526;DHT22;11429;50.842;4.386;2023-08-17T11:41:02;23.50;99.90
22526;DHT22;11429;50.842;4.386;2023-08-17T11:43:29;23.40;99.90
22526;DHT22;11429;50.842;4.386;2023-08-17T11:45:56;24.00;99.90
22526;DHT22;11429;50.842;4.386;2023-08-17T11:48:23;24.00;99.90
22526;DHT22;11429;50.842;4.386;2023-08-17T11:50:50;24.40;99.90
22526;DHT22;11429;50.842;4.386;2023-08-17T11:53:16;24.40;99.90
22526;DHT22;11429;50.842;4.386;2023-08-17T11:55:43;24.10;99.90
22526;DHT22;11429;50.842;4.386;2023-08-17T11:58:08;23.90;99.90
22526;DHT22;11429;50.842;4.386;2023-08-17T12:00:36;24.10;99.90
22526;DHT22;11429;50.842;4.386;2023-08-17T12:03:05;24.10;99.90
22526;DHT22;11429;50.842;4.386;2023-08-17T12:05:32;24.10;99.90
22526;DHT22;11429;50.842;4.386;2023-08-17T12:07:59;23.80;99.90
22526;DHT22;11429;50.842;4.386;2023-08-17T12:10:31;23.70;99.90
22526;DHT22;11429;50.842;4.386;2023-08-17T12:13:00;23.50;99.90
22526;DHT22;11429;50.842;4.386;2023-08-17T12:15:36;23.50;99.90
22526;DHT22;11429;50.842;4.386;2023-08-17T12:18:04;23.30;99.90
22526;DHT22;11429;50.842;4.386;2023-08-17T12:20:32;23.20;99.90
22526;DHT22;11429;50.842;4.386;2023-08-17T12:23:02;23.10;99.90
22526;DHT22;11429;50.842;4.386;2023-08-17T12:25:28;23.20;99.90
22526;DHT22;11429;50.842;4.386;2023-08-17T12:27:53;23.30;99.90
22526;DHT22;11429;50.842;4.386;2023-08-17T12:30:28;23.10;99.90
22526;DHT22;11429;50.842;4.386;2023-08-17T12:32:54;23.30;99.90
22526;DHT22;11429;50.842;4.386;2023-08-17T12:35:20;23.20;99.90
22526;DHT22;11429;50.842;4.386;2023-08-17T12:37:48;23.50;99.90
22526;DHT22;11429;50.842;4.386;2023-08-17T12:40:14;23.80;99.90
22526;DHT22;11429;50.842;4.386;2023-08-17T12:42:40;23.70;99.90
22526;DHT22;11429;50.842;4.386;2023-08-17T12:45:05;23.60;99.90
22526;DHT22;11429;50.842;4.386;2023-08-17T12:47:31;23.60;99.90
22526;DHT22;11429;50.842;4.386;2023-08-17T12:49:57;23.70;99.90
22526;DHT22;11429;50.842;4.386;2023-08-17T12:52:23;23.60;99.90
22526;DHT22;11429;50.842;4.386;2023-08-17T12:54:49;24.00;99.90
22526;DHT22;11429;50.842;4.386;2023-08-17T12:57:15;24.10;99.90
22526;DHT22;11429;50.842;4.386;2023-08-17T12:59:40;24.00;99.90
22526;DHT22;11429;50.842;4.386;2023-08-17T13:02:06;23.80;99.90
22526;DHT22;11429;50.842;4.386;2023-08-17T13:04:32;23.80;99.90
22526;DHT22;11429;50.842;4.386;2023-08-17T13:06:57;24.00;99.90
22526;DHT22;11429;50.842;4.386;2023-08-17T13:09:23;24.10;99.90
22526;DHT22;11429;50.842;4.386;2023-08-17T13:11:49;23.90;99.90
22526;DHT22;11429;50.842;4.386;2023-08-17T13:14:15;23.80;99.90
22526;DHT22;11429;50.842;4.386;2023-08-17T13:16:41;23.90;99.90
22526;DHT22;11429;50.842;4.386;2023-08-17T13:19:07;23.90;99.90
22526;DHT22;11429;50.842;4.386;2023-08-17T13:21:33;24.00;99.90
22526;DHT22;11429;50.842;4.386;2023-08-17T13:23:59;23.90;99.90
22526;DHT22;11429;50.842;4.386;2023-08-17T13:26:25;24.00;99.90
22526;DHT22;11429;50.842;4.386;2023-08-17T13:28:50;24.10;99.90
22526;DHT22;11429;50.842;4.386;2023-08-17T13:31:16;23.90;99.90
22526;DHT22;11429;50.842;4.386;2023-08-17T13:33:42;24.00;99.90
22526;DHT22;11429;50.842;4.386;2023-08-17T13:36:07;24.10;99.90
22526;DHT22;11429;50.842;4.386;2023-08-17T13:38:33;24.00;99.90
22526;DHT22;11429;50.842;4.386;2023-08-17T13:40:59;24.10;99.90
22526;DHT22;11429;50.842;4.386;2023-08-17T13:43:24;24.20;99.90
22526;DHT22;11429;50.842;4.386;2023-08-17T13:45:50;24.00;99.90
22526;DHT22;11429;50.842;4.386;2023-08-17T13:48:16;24.30;99.90
22526;DHT22;11429;50.842;4.386;2023-08-17T13:50:41;24.30;99.90
22526;DHT22;11429;50.842;4.386;2023-08-17T13:53:07;24.30;99.90
22526;DHT22;11429;50.842;4.386;2023-08-17T13:55:33;24.30;99.90
22526;DHT22;11429;50.842;4.386;2023-08-17T13:57:59;24.40;99.90
22526;DHT22;11429;50.842;4.386;2023-08-17T14:00:25;24.50;99.90
22526;DHT22;11429;50.842;4.386;2023-08-17T14:02:52;24.50;99.90
22526;DHT22;11429;50.842;4.386;2023-08-17T14:05:18;24.30;99.90
22526;DHT22;11429;50.842;4.386;2023-08-17T14:07:43;24.20;99.90
22526;DHT22;11429;50.842;4.386;2023-08-17T14:10:10;24.30;99.90
22526;DHT22;11429;50.842;4.386;2023-08-17T14:12:36;24.30;99.90
22526;DHT22;11429;50.842;4.386;2023-08-17T14:15:01;24.20;99.90
22526;DHT22;11429;50.842;4.386;2023-08-17T14:17:27;23.90;99.90
22526;DHT22;11429;50.842;4.386;2023-08-17T14:19:53;23.90;99.90
22526;DHT22;11429;50.842;4.386;2023-08-17T14:22:20;24.00;99.90
22526;DHT22;11429;50.842;4.386;2023-08-17T14:24:46;24.10;99.90
22526;DHT22;11429;50.842;4.386;2023-08-17T14:27:11;24.10;99.90
22526;DHT22;11429;50.842;4.386;2023-08-17T14:29:38;23.80;99.90
22526;DHT22;11429;50.842;4.386;2023-08-17T14:32:04;23.60;99.90
22526;DHT22;11429;50.842;4.386;2023-08-17T14:34:29;23.30;99.90
22526;DHT22;11429;50.842;4.386;2023-08-17T14:36:55;23.20;99.90
22526;DHT22;11429;50.842;4.386;2023-08-17T14:39:21;23.40;99.90
22526;DHT22;11429;50.842;4.386;2023-08-17T14:41:47;23.50;99.90
22526;DHT22;11429;50.842;4.386;2023-08-17T14:44:12;23.30;99.90
22526;DHT22;11429;50.842;4.386;2023-08-17T14:46:38;23.00;99.90
22526;DHT22;11429;50.842;4.386;2023-08-17T14:49:05;23.00;99.90
22526;DHT22;11429;50.842;4.386;2023-08-17T14:51:37;23.00;99.90
22526;DHT22;11429;50.842;4.386;2023-08-17T14:54:04;23.00;99.90
22526;DHT22;11429;50.842;4.386;2023-08-17T14:56:29;23.00;99.90
22526;DHT22;11429;50.842;4.386;2023-08-17T14:58:55;22.70;99.90
22526;DHT22;11429;50.842;4.386;2023-08-17T15:01:21;22.80;99.90
22526;DHT22;11429;50.842;4.386;2023-08-17T15:03:46;23.00;99.90
22526;DHT22;11429;50.842;4.386;2023-08-17T15:06:12;23.20;99.90
22526;DHT22;11429;50.842;4.386;2023-08-17T15:08:38;23.30;99.90
22526;DHT22;11429;50.842;4.386;2023-08-17T15:11:04;23.40;99.90
22526;DHT22;11429;50.842;4.386;2023-08-17T15:13:31;23.40;99.90
22526;DHT22;11429;50.842;4.386;2023-08-17T15:15:58;23.70;99.90
22526;DHT22;11429;50.842;4.386;2023-08-17T15:18:24;23.70;99.90
22526;DHT22;11429;50.842;4.386;2023-08-17T15:20:49;23.80;99.90
22526;DHT22;11429;50.842;4.386;2023-08-17T15:23:15;23.70;99.90
22526;DHT22;11429;50.842;4.386;2023-08-17T15:25:41;23.60;99.90
22526;DHT22;11429;50.842;4.386;2023-08-17T15:28:07;23.70;99.90
22526;DHT22;11429;50.842;4.386;2023-08-17T15:30:33;24.00;99.90
22526;DHT22;11429;50.842;4.386;2023-08-17T15:32:58;24.00;99.90
22526;DHT22;11429;50.842;4.386;2023-08-17T15:35:27;24.20;99.90
22526;DHT22;11429;50.842;4.386;2023-08-17T15:37:53;24.10;99.90